< < Back
Terminal Aerodrome Forecast


Current Version              Previous Versions:   1  2  3  4  5  6  7  8  9  

Terminal Aerodrome Forecast

193
FTUS42 KTAE 221700
TAFTLH
TAF
KTLH 221724Z 2218/2318 26008KT P6SM SCT050 BKN100
     FM230900 31003KT 5SM BR SKC
      TEMPO 2311/2314 00000KT 1SM BR BKN003
     FM231500 31005KT P6SM SCT250=

Latest METAR

241
SAUS80 KWBC 232000 CCA
MTRTLH
METAR KTLH 231953Z 33008KT 10SM BKN050 BKN075 30/13 A2989 RMK AO2 SLP119
FU SE OF AP T03000133


USA.gov is the U.S. government's official web portal to all federal, state and local government web resources and services.